createdAt,value
2023-04-27T00:01:52.627Z,3.30
2023-04-27T00:04:20.682Z,3.38
2023-04-27T00:06:47.354Z,3.42
2023-04-27T00:09:13.941Z,3.00
2023-04-27T00:11:40.628Z,3.17
2023-04-27T00:14:07.059Z,3.40
2023-04-27T00:16:33.589Z,3.03
2023-04-27T00:19:00.776Z,2.97
2023-04-27T00:21:27.205Z,3.00
2023-04-27T00:23:54.525Z,3.28
2023-04-27T00:26:22.307Z,2.80
2023-04-27T00:28:50.720Z,3.22
2023-04-27T00:31:17.190Z,3.10
2023-04-27T00:33:43.623Z,3.20
2023-04-27T00:36:10.147Z,3.33
2023-04-27T00:38:36.889Z,3.35
2023-04-27T00:41:07.235Z,3.45
2023-04-27T00:43:42.031Z,3.28
2023-04-27T00:46:09.202Z,3.22
2023-04-27T00:48:35.825Z,3.58
2023-04-27T00:51:02.329Z,3.72
2023-04-27T00:53:29.383Z,3.72
2023-04-27T00:55:57.845Z,3.28
2023-04-27T00:58:25.519Z,3.42
2023-04-27T01:00:52.288Z,3.35
2023-04-27T01:03:18.935Z,2.85
2023-04-27T01:05:45.878Z,3.00
2023-04-27T01:08:13.411Z,3.33
2023-04-27T01:10:41.160Z,3.40
2023-04-27T01:13:10.129Z,2.70
2023-04-27T01:15:37.906Z,2.70
2023-04-27T01:18:09.441Z,3.00
2023-04-27T01:20:36.259Z,3.50
2023-04-27T01:23:03.395Z,4.03
2023-04-27T01:25:29.838Z,3.50
2023-04-27T01:27:56.360Z,3.50
2023-04-27T01:30:22.973Z,4.85
2023-04-27T01:32:50.055Z,3.33
2023-04-27T01:35:18.994Z,3.45
2023-04-27T01:37:45.722Z,3.58
2023-04-27T01:40:13.071Z,3.70
2023-04-27T01:42:39.495Z,3.20
2023-04-27T01:45:09.057Z,3.40
2023-04-27T01:47:35.658Z,3.40
2023-04-27T01:50:02.311Z,3.10
2023-04-27T01:52:28.787Z,3.60
2023-04-27T01:54:55.490Z,3.47
2023-04-27T01:57:22.692Z,3.45
2023-04-27T01:59:49.217Z,3.75
2023-04-27T02:02:15.773Z,3.03
2023-04-27T02:04:43.225Z,3.53
2023-04-27T02:07:10.974Z,3.28
2023-04-27T02:09:37.538Z,3.30
2023-04-27T02:12:04.141Z,3.80
2023-04-27T02:14:30.545Z,3.70
2023-04-27T02:16:56.963Z,3.63
2023-04-27T02:19:23.382Z,3.35
2023-04-27T02:21:49.821Z,3.45
2023-04-27T02:24:16.452Z,3.60
2023-04-27T02:26:44.933Z,4.00
2023-04-27T02:29:11.511Z,4.22
2023-04-27T02:31:38.566Z,3.58
2023-04-27T02:34:05.178Z,4.00
2023-04-27T02:36:31.974Z,3.78
2023-04-27T02:38:58.411Z,3.63
2023-04-27T02:41:27.805Z,4.32
2023-04-27T02:43:54.220Z,3.70
2023-04-27T02:46:20.750Z,4.22
2023-04-27T02:48:47.188Z,3.80
2023-04-27T02:51:13.665Z,3.78
2023-04-27T02:53:40.147Z,4.05
2023-04-27T02:56:06.671Z,4.47
2023-04-27T02:58:33.143Z,4.15
2023-04-27T03:00:59.672Z,4.13
2023-04-27T03:03:26.400Z,4.03
2023-04-27T03:05:52.916Z,4.10
2023-04-27T03:08:19.355Z,4.45
2023-04-27T03:10:45.814Z,3.88
2023-04-27T03:13:12.206Z,4.43
2023-04-27T03:15:38.657Z,4.05
2023-04-27T03:18:05.610Z,4.38
2023-04-27T03:20:33.656Z,4.30
2023-04-27T03:23:00.140Z,3.92
2023-04-27T03:25:26.670Z,4.57
2023-04-27T03:27:53.125Z,4.07
2023-04-27T03:30:22.730Z,4.18
2023-04-27T03:32:49.202Z,4.20
2023-04-27T03:35:15.889Z,4.03
2023-04-27T03:37:42.348Z,4.28
2023-04-27T03:40:09.365Z,3.72
2023-04-27T03:42:36.551Z,4.10
2023-04-27T03:45:03.057Z,4.20
2023-04-27T03:47:29.648Z,4.30
2023-04-27T03:49:57.020Z,3.90
2023-04-27T03:52:23.517Z,4.10
2023-04-27T03:54:50.207Z,3.85
2023-04-27T03:57:17.884Z,4.20
2023-04-27T03:59:44.288Z,4.28
2023-04-27T04:02:11.620Z,4.13
2023-04-27T04:04:38.501Z,4.20
2023-04-27T04:07:05.774Z,4.60
2023-04-27T04:09:32.334Z,4.40
2023-04-27T04:11:59.293Z,4.20
2023-04-27T04:14:27.234Z,4.43
2023-04-27T04:16:54.576Z,5.25
2023-04-27T04:19:22.104Z,4.70
2023-04-27T04:21:48.809Z,4.28
2023-04-27T04:24:16.088Z,3.88
2023-04-27T04:26:43.085Z,3.90
2023-04-27T04:29:10.968Z,4.00
2023-04-27T04:31:38.254Z,4.00
2023-04-27T04:34:04.892Z,4.30
2023-04-27T04:36:32.029Z,3.90
2023-04-27T04:38:58.633Z,4.40
2023-04-27T04:41:26.203Z,4.13
2023-04-27T04:43:52.699Z,3.90
2023-04-27T04:46:19.940Z,4.28
2023-04-27T04:48:46.848Z,4.07
2023-04-27T04:51:13.440Z,4.25
2023-04-27T04:53:39.976Z,4.30
2023-04-27T04:56:10.944Z,4.15
2023-04-27T04:58:37.457Z,4.57
2023-04-27T05:01:04.731Z,4.28
2023-04-27T05:03:31.662Z,4.25
2023-04-27T05:05:58.180Z,4.10
2023-04-27T05:08:24.865Z,4.30
2023-04-27T05:10:52.535Z,4.32
2023-04-27T05:13:19.668Z,4.38
2023-04-27T05:15:46.722Z,4.78
2023-04-27T05:18:13.217Z,4.10
2023-04-27T05:20:39.596Z,4.22
2023-04-27T05:23:06.024Z,4.35
2023-04-27T05:25:33.017Z,4.50
2023-04-27T05:27:59.467Z,4.45
2023-04-27T05:30:26.020Z,4.68
2023-04-27T05:32:52.653Z,4.50
2023-04-27T05:35:19.082Z,4.82
2023-04-27T05:37:45.512Z,4.85
2023-04-27T05:40:12.437Z,3.95
2023-04-27T05:42:39.007Z,4.47
2023-04-27T05:45:09.273Z,4.28
2023-04-27T05:47:36.480Z,4.63
2023-04-27T05:50:03.758Z,4.72
2023-04-27T05:52:31.288Z,4.65
2023-04-27T05:54:58.593Z,4.70
2023-04-27T05:57:26.033Z,4.03
2023-04-27T05:59:53.167Z,4.13
2023-04-27T06:02:20.003Z,4.07
2023-04-27T06:04:46.662Z,4.85
2023-04-27T06:07:14.662Z,4.22
2023-04-27T06:09:41.910Z,4.47
2023-04-27T06:12:09.329Z,4.65
2023-04-27T06:14:37.541Z,4.15
2023-04-27T06:17:04.358Z,4.55
2023-04-27T06:19:31.493Z,4.50
2023-04-27T06:21:57.878Z,4.32
2023-04-27T06:24:24.318Z,4.10
2023-04-27T06:26:51.071Z,4.28
2023-04-27T06:29:17.718Z,4.25
2023-04-27T06:31:44.446Z,4.70
2023-04-27T06:34:10.981Z,4.35
2023-04-27T06:36:37.390Z,3.50
2023-04-27T06:39:03.806Z,4.00
2023-04-27T06:41:30.641Z,3.80
2023-04-27T06:43:58.566Z,4.30
2023-04-27T06:46:26.035Z,3.47
2023-04-27T06:48:52.744Z,3.60
2023-04-27T06:51:19.413Z,3.42
2023-04-27T06:53:45.881Z,3.85
2023-04-27T06:56:12.364Z,4.00
2023-04-27T06:58:38.760Z,3.90
2023-04-27T07:01:05.325Z,4.10
2023-04-27T07:03:34.892Z,3.25
2023-04-27T07:06:01.665Z,3.97
2023-04-27T07:08:28.097Z,4.00
2023-04-27T07:10:56.046Z,3.50
2023-04-27T07:13:22.562Z,4.15
2023-04-27T07:15:54.831Z,3.78
2023-04-27T07:18:21.303Z,3.65
2023-04-27T07:20:47.679Z,3.63
2023-04-27T07:23:14.581Z,3.22
2023-04-27T07:25:41.025Z,3.90
2023-04-27T07:28:07.554Z,3.45
2023-04-27T07:30:36.410Z,3.70
2023-04-27T07:33:03.052Z,3.80
2023-04-27T07:35:29.686Z,3.25
2023-04-27T07:37:56.593Z,3.90
2023-04-27T07:40:24.176Z,3.50
2023-04-27T07:42:51.127Z,3.38
2023-04-27T07:45:17.978Z,3.40
2023-04-27T07:47:44.620Z,3.35
2023-04-27T07:50:11.192Z,3.38
2023-04-27T07:52:37.593Z,3.08
2023-04-27T07:55:04.660Z,3.53
2023-04-27T07:57:31.476Z,2.90
2023-04-27T07:59:58.037Z,3.65
2023-04-27T08:02:26.762Z,3.00
2023-04-27T08:04:53.529Z,3.22
2023-04-27T08:07:20.437Z,2.85
2023-04-27T08:09:47.032Z,3.22
2023-04-27T08:12:13.936Z,3.10
2023-04-27T08:14:40.419Z,2.92
2023-04-27T08:17:06.998Z,3.30
2023-04-27T08:19:33.483Z,3.40
2023-04-27T08:22:00.757Z,3.20
2023-04-27T08:24:27.178Z,3.55
2023-04-27T08:26:53.592Z,3.42
2023-04-27T08:29:27.960Z,2.60
2023-04-27T08:31:58.605Z,2.63
2023-04-27T08:34:25.703Z,2.70
2023-04-27T08:36:52.129Z,2.40
2023-04-27T08:39:18.939Z,2.50
2023-04-27T08:41:46.272Z,2.50
2023-04-27T08:44:12.790Z,3.10
2023-04-27T08:46:39.559Z,2.60
2023-04-27T08:49:07.395Z,2.88
2023-04-27T08:51:34.509Z,3.28
2023-04-27T08:54:01.317Z,2.58
2023-04-27T08:56:29.137Z,3.05
2023-04-27T08:58:57.294Z,3.17
2023-04-27T09:01:25.157Z,3.10
2023-04-27T09:04:00.013Z,2.55
2023-04-27T09:06:32.043Z,2.80
2023-04-27T09:08:59.002Z,2.67
2023-04-27T09:11:37.071Z,2.58
2023-04-27T09:14:19.334Z,2.88
2023-04-27T09:16:46.420Z,2.70
2023-04-27T09:19:24.066Z,2.88
2023-04-27T09:21:51.612Z,2.70
2023-04-27T09:24:18.063Z,2.85
2023-04-27T09:26:49.950Z,2.80
2023-04-27T09:29:16.403Z,2.75
2023-04-27T09:31:42.823Z,2.78
2023-04-27T09:34:09.236Z,3.17
2023-04-27T09:36:36.030Z,2.80
2023-04-27T09:39:06.433Z,3.17
2023-04-27T09:41:33.327Z,2.80
2023-04-27T09:44:00.133Z,3.08
2023-04-27T09:46:29.821Z,2.72
2023-04-27T09:48:57.340Z,3.15
2023-04-27T09:51:23.746Z,3.10
2023-04-27T09:53:54.154Z,2.55
2023-04-27T09:56:28.340Z,2.90
2023-04-27T09:59:23.166Z,2.72
2023-04-27T10:04:55.878Z,2.50
2023-04-27T10:07:22.960Z,2.72
2023-04-27T10:09:51.692Z,2.80
2023-04-27T10:12:26.199Z,3.00
2023-04-27T10:14:58.205Z,2.67
2023-04-27T10:17:32.727Z,3.08
2023-04-27T10:20:01.437Z,3.03
2023-04-27T10:22:58.142Z,2.75
2023-04-27T10:25:38.912Z,2.85
2023-04-27T10:28:07.979Z,3.42
2023-04-27T10:30:37.307Z,2.75
2023-04-27T10:33:09.745Z,2.97
2023-04-27T10:35:38.683Z,2.80
2023-04-27T10:38:09.948Z,2.70
2023-04-27T10:40:39.656Z,2.83
2023-04-27T10:43:14.265Z,2.72
2023-04-27T10:45:42.486Z,2.70
2023-04-27T10:48:13.018Z,3.10
2023-04-27T10:50:40.423Z,3.25
2023-04-27T10:53:08.084Z,2.80
2023-04-27T10:55:35.571Z,2.65
2023-04-27T10:58:02.490Z,2.90
2023-04-27T11:00:32.392Z,3.10
2023-04-27T11:03:11.894Z,2.85
2023-04-27T11:05:38.982Z,3.00
2023-04-27T11:08:08.321Z,3.03
2023-04-27T11:10:38.102Z,2.80
2023-04-27T11:13:09.179Z,2.42
2023-04-27T11:15:43.721Z,2.75
2023-04-27T11:18:10.831Z,2.83
2023-04-27T11:20:37.305Z,2.92
2023-04-27T11:23:04.258Z,2.83
2023-04-27T11:25:30.719Z,2.50
2023-04-27T11:27:57.130Z,2.97
2023-04-27T11:30:24.098Z,2.80
2023-04-27T11:32:51.259Z,2.97
2023-04-27T11:35:18.297Z,2.80
2023-04-27T11:37:44.919Z,2.63
2023-04-27T11:40:14.386Z,2.55
2023-04-27T11:42:43.546Z,2.90
2023-04-27T11:45:12.172Z,2.90
2023-04-27T11:47:40.891Z,2.78
2023-04-27T11:50:08.422Z,2.80
2023-04-27T11:52:37.073Z,2.70
2023-04-27T11:55:04.905Z,3.10
2023-04-27T11:57:34.038Z,2.90
2023-04-27T12:00:02.332Z,2.67
2023-04-27T12:02:40.406Z,2.60
2023-04-27T12:05:08.006Z,2.45
2023-04-27T12:07:35.831Z,2.80
2023-04-27T12:10:02.284Z,2.88
2023-04-27T12:12:28.781Z,2.60
2023-04-27T12:14:55.281Z,2.58
2023-04-27T12:17:21.715Z,2.60
2023-04-27T12:19:48.134Z,2.70
2023-04-27T12:22:14.564Z,2.63
2023-04-27T12:24:41.022Z,2.45
2023-04-27T12:27:08.323Z,2.80
2023-04-27T12:29:35.085Z,3.00
2023-04-27T12:32:01.622Z,3.03
2023-04-27T12:34:30.812Z,2.97
2023-04-27T12:36:57.264Z,2.42
2023-04-27T12:39:25.351Z,3.08
2023-04-27T12:41:53.694Z,2.58
2023-04-27T12:44:21.553Z,2.70
2023-04-27T12:46:49.037Z,2.50
2023-04-27T12:49:16.620Z,3.17
2023-04-27T12:51:43.249Z,2.45
2023-04-27T12:54:11.167Z,3.20
2023-04-27T12:56:37.768Z,2.80
2023-04-27T12:59:05.858Z,2.88
2023-04-27T13:01:32.424Z,3.00
2023-04-27T13:04:01.638Z,2.80
2023-04-27T13:06:29.405Z,3.13
2023-04-27T13:08:56.363Z,2.40
2023-04-27T13:11:24.270Z,2.88
2023-04-27T13:13:50.966Z,3.03
2023-04-27T13:16:19.586Z,2.42
2023-04-27T13:18:49.808Z,2.65
2023-04-27T13:21:16.613Z,2.92
2023-04-27T13:23:43.457Z,2.65
2023-04-27T13:26:10.267Z,2.92
2023-04-27T13:28:36.778Z,2.55
2023-04-27T13:31:04.041Z,2.83
2023-04-27T13:33:32.051Z,2.80
2023-04-27T13:36:02.007Z,2.95
2023-04-27T13:38:28.911Z,3.22
2023-04-27T13:40:55.424Z,2.95
2023-04-27T13:43:21.907Z,3.13
2023-04-27T13:45:49.809Z,3.03
2023-04-27T13:48:16.258Z,2.97
2023-04-27T13:50:42.687Z,2.83
2023-04-27T13:53:09.427Z,2.83
2023-04-27T13:55:36.486Z,2.90
2023-04-27T13:58:03.030Z,3.08
2023-04-27T14:00:33.331Z,2.72
2023-04-27T14:03:01.423Z,3.00
2023-04-27T14:05:27.976Z,2.60
2023-04-27T14:07:54.436Z,3.10
2023-04-27T14:10:20.919Z,3.50
2023-04-27T14:12:47.473Z,2.83
2023-04-27T14:15:14.417Z,2.88
2023-04-27T14:17:41.194Z,3.17
2023-04-27T14:20:08.297Z,3.42
2023-04-27T14:22:36.172Z,3.03
2023-04-27T14:25:03.013Z,3.15
2023-04-27T14:27:29.610Z,3.20
2023-04-27T14:29:56.456Z,2.80
2023-04-27T14:32:23.380Z,2.80
2023-04-27T14:34:49.833Z,2.67
2023-04-27T14:37:16.279Z,2.70
2023-04-27T14:39:45.123Z,2.70
2023-04-27T14:42:11.910Z,2.80
2023-04-27T14:44:38.325Z,3.17
2023-04-27T14:47:04.943Z,3.00
2023-04-27T14:49:32.056Z,3.20
2023-04-27T14:52:00.426Z,2.92
2023-04-27T14:54:26.881Z,2.70
2023-04-27T14:56:53.369Z,2.67
2023-04-27T14:59:19.873Z,2.90
2023-04-27T15:01:46.420Z,2.85
2023-04-27T15:04:12.999Z,2.85
2023-04-27T15:06:39.503Z,2.83
2023-04-27T15:09:06.206Z,2.72
2023-04-27T15:11:32.888Z,2.60
2023-04-27T15:13:59.341Z,2.95
2023-04-27T15:16:25.949Z,2.95
2023-04-27T15:18:52.428Z,2.85
2023-04-27T15:21:18.854Z,2.70
2023-04-27T15:23:45.364Z,2.95
2023-04-27T15:26:11.819Z,2.65
2023-04-27T15:28:38.527Z,2.92
2023-04-27T15:31:05.276Z,2.90
2023-04-27T15:33:31.791Z,2.78
2023-04-27T15:35:59.085Z,2.90
2023-04-27T15:38:26.326Z,3.17
2023-04-27T15:40:52.816Z,2.90
2023-04-27T15:43:19.287Z,3.22
2023-04-27T15:45:45.863Z,3.00
2023-04-27T15:48:12.420Z,2.88
2023-04-27T15:50:39.289Z,3.25
2023-04-27T15:53:06.198Z,3.05
2023-04-27T15:55:32.787Z,3.10
2023-04-27T15:57:59.212Z,3.05
2023-04-27T16:00:25.730Z,2.85
2023-04-27T16:02:52.458Z,3.15
2023-04-27T16:05:19.090Z,3.38
2023-04-27T16:07:45.923Z,2.85
2023-04-27T16:10:13.129Z,2.78
2023-04-27T16:12:39.753Z,2.85
2023-04-27T16:15:10.079Z,2.80
2023-04-27T16:17:37.825Z,3.00
2023-04-27T16:20:07.931Z,2.60
2023-04-27T16:22:34.900Z,2.80
2023-04-27T16:25:02.193Z,3.05
2023-04-27T16:27:28.600Z,2.30
2023-04-27T16:29:55.724Z,2.80
2023-04-27T16:32:23.227Z,2.95
2023-04-27T16:34:49.955Z,2.58
2023-04-27T16:37:16.428Z,2.75
2023-04-27T16:39:42.892Z,2.55
2023-04-27T16:42:09.701Z,3.25
2023-04-27T16:44:37.967Z,2.72
2023-04-27T16:47:04.443Z,2.83
2023-04-27T16:49:30.928Z,2.97
2023-04-27T16:51:57.429Z,2.88
2023-04-27T16:54:23.854Z,3.50
2023-04-27T16:56:50.305Z,3.70
2023-04-27T16:59:17.148Z,3.55
2023-04-27T17:01:50.198Z,3.40
2023-04-27T17:04:17.043Z,3.43
2023-04-27T17:06:45.820Z,3.53
2023-04-27T17:09:12.437Z,3.15
2023-04-27T17:11:38.934Z,3.55
2023-04-27T17:14:05.454Z,3.33
2023-04-27T17:16:31.951Z,3.53
2023-04-27T17:18:58.422Z,3.55
2023-04-27T17:21:27.317Z,3.58
2023-04-27T17:23:53.889Z,3.70
2023-04-27T17:26:21.477Z,3.70
2023-04-27T17:28:48.232Z,3.95
2023-04-27T17:31:17.351Z,3.40
2023-04-27T17:33:44.162Z,3.80
2023-04-27T17:36:11.230Z,3.42
2023-04-27T17:38:37.724Z,3.80
2023-04-27T17:41:04.189Z,3.80
2023-04-27T17:43:30.762Z,3.88
2023-04-27T17:45:57.267Z,3.65
2023-04-27T17:48:24.113Z,3.70
2023-04-27T17:50:50.530Z,3.30
2023-04-27T17:53:17.012Z,3.17
2023-04-27T17:55:47.599Z,3.38
2023-04-27T17:58:15.397Z,3.10
2023-04-27T18:00:43.055Z,3.55
2023-04-27T18:03:09.975Z,3.70
2023-04-27T18:05:36.728Z,3.72
2023-04-27T18:08:03.576Z,3.80
2023-04-27T18:10:33.070Z,4.25
2023-04-27T18:12:59.738Z,3.58
2023-04-27T18:15:26.154Z,4.28
2023-04-27T18:17:52.594Z,3.42
2023-04-27T18:20:19.103Z,3.22
2023-04-27T18:22:45.577Z,3.65
2023-04-27T18:25:13.089Z,4.05
2023-04-27T18:27:39.545Z,3.33
2023-04-27T18:30:07.774Z,3.35
2023-04-27T18:32:34.838Z,3.30
2023-04-27T18:35:02.286Z,3.22
2023-04-27T18:37:29.289Z,3.55
2023-04-27T18:39:56.155Z,3.83
2023-04-27T18:42:23.396Z,3.60
2023-04-27T18:44:52.005Z,3.60
2023-04-27T18:47:18.489Z,3.90
2023-04-27T18:49:44.882Z,3.42
2023-04-27T18:52:11.606Z,3.55
2023-04-27T18:54:38.610Z,3.38
2023-04-27T18:57:05.060Z,3.75
2023-04-27T18:59:31.549Z,3.60
2023-04-27T19:01:58.117Z,3.40
2023-04-27T19:04:26.089Z,3.50
2023-04-27T19:06:52.607Z,3.78
2023-04-27T19:09:19.216Z,3.83
2023-04-27T19:11:49.418Z,3.75
2023-04-27T19:14:19.778Z,4.35
2023-04-27T19:16:46.477Z,3.92
2023-04-27T19:19:13.263Z,4.10
2023-04-27T19:21:41.810Z,4.15
2023-04-27T19:24:08.358Z,4.20
2023-04-27T19:26:35.151Z,4.28
2023-04-27T19:29:02.261Z,4.85
2023-04-27T19:31:28.776Z,4.28
2023-04-27T19:33:55.808Z,4.30
2023-04-27T19:36:30.629Z,4.55
2023-04-27T19:38:57.257Z,4.22
2023-04-27T19:41:25.014Z,4.40
2023-04-27T19:43:51.463Z,4.20
2023-04-27T19:46:17.950Z,4.20
2023-04-27T19:48:44.392Z,4.72
2023-04-27T19:51:10.984Z,4.85
2023-04-27T19:53:38.087Z,4.30
2023-04-27T19:56:04.550Z,4.30
2023-04-27T19:58:31.147Z,4.43
2023-04-27T20:00:57.671Z,4.53
2023-04-27T20:03:24.449Z,5.10
2023-04-27T20:05:51.636Z,4.93
2023-04-27T20:08:18.352Z,4.90
2023-04-27T20:10:44.777Z,5.68
2023-04-27T20:13:11.253Z,5.30
2023-04-27T20:15:37.705Z,4.68
2023-04-27T20:18:04.346Z,5.25
2023-04-27T20:20:30.884Z,5.18
2023-04-27T20:22:57.372Z,5.20
2023-04-27T20:25:26.189Z,4.82
2023-04-27T20:27:52.908Z,5.10
2023-04-27T20:30:19.432Z,4.80
2023-04-27T20:32:46.529Z,5.05
2023-04-27T20:35:13.222Z,4.93
2023-04-27T20:37:41.865Z,5.30
2023-04-27T20:40:13.432Z,4.60
2023-04-27T20:42:40.770Z,4.75
2023-04-27T20:45:10.183Z,5.13
2023-04-27T20:47:37.649Z,5.03
2023-04-27T20:50:04.932Z,4.78
2023-04-27T20:52:33.912Z,5.22
2023-04-27T20:55:01.408Z,5.75
2023-04-27T20:57:27.859Z,5.55
2023-04-27T20:59:54.367Z,5.32
2023-04-27T21:02:20.827Z,5.25
2023-04-27T21:04:48.259Z,5.90
2023-04-27T21:07:14.738Z,5.70
2023-04-27T21:09:41.591Z,6.45
2023-04-27T21:12:08.673Z,6.10
2023-04-27T21:14:35.172Z,5.82
2023-04-27T21:17:01.734Z,5.63
2023-04-27T21:19:28.193Z,6.25
2023-04-27T21:21:54.619Z,6.03
2023-04-27T21:24:22.338Z,5.80
2023-04-27T21:26:48.982Z,6.07
2023-04-27T21:29:15.443Z,6.20
2023-04-27T21:31:41.903Z,6.00
2023-04-27T21:34:08.318Z,5.82
2023-04-27T21:36:34.757Z,6.15
2023-04-27T21:39:01.249Z,5.72
2023-04-27T21:41:27.707Z,6.43
2023-04-27T21:43:54.521Z,5.43
2023-04-27T21:46:23.156Z,5.47
2023-04-27T21:48:49.613Z,5.70
2023-04-27T21:51:16.034Z,5.88
2023-04-27T21:53:42.461Z,5.88
2023-04-27T21:56:09.008Z,5.88
2023-04-27T21:58:35.384Z,6.22
2023-04-27T22:01:02.299Z,5.63
2023-04-27T22:03:28.936Z,6.10
2023-04-27T22:05:57.425Z,6.15
2023-04-27T22:08:23.914Z,5.57
2023-04-27T22:10:50.348Z,5.88
2023-04-27T22:13:19.165Z,5.95
2023-04-27T22:15:46.396Z,5.80
2023-04-27T22:18:14.342Z,5.35
2023-04-27T22:20:42.276Z,5.60
2023-04-27T22:23:09.409Z,5.90
2023-04-27T22:25:36.122Z,5.75
2023-04-27T22:28:02.627Z,5.45
2023-04-27T22:30:29.312Z,5.97
2023-04-27T22:32:56.284Z,5.80
2023-04-27T22:35:27.072Z,5.78
2023-04-27T22:37:55.655Z,6.20
2023-04-27T22:40:22.345Z,5.95
2023-04-27T22:42:48.859Z,5.90
2023-04-27T22:45:15.327Z,6.03
2023-04-27T22:47:41.878Z,6.00
2023-04-27T22:50:08.604Z,6.20
2023-04-27T22:52:37.156Z,6.22
2023-04-27T22:55:04.277Z,7.05
2023-04-27T22:57:30.872Z,6.57
2023-04-27T22:59:57.342Z,6.47
2023-04-27T23:02:23.942Z,6.45
2023-04-27T23:04:50.916Z,6.40
2023-04-27T23:07:18.311Z,6.45
2023-04-27T23:09:45.709Z,6.57
2023-04-27T23:12:12.190Z,6.22
2023-04-27T23:14:39.993Z,6.20
2023-04-27T23:17:07.358Z,6.20
2023-04-27T23:19:34.468Z,5.82
2023-04-27T23:22:01.765Z,6.53
2023-04-27T23:24:31.311Z,6.05
2023-04-27T23:26:58.351Z,5.85
2023-04-27T23:29:25.359Z,6.05
2023-04-27T23:31:51.898Z,5.68
2023-04-27T23:34:18.690Z,5.47
2023-04-27T23:36:45.205Z,6.05
2023-04-27T23:39:11.644Z,5.88
2023-04-27T23:41:38.256Z,5.80
2023-04-27T23:44:04.767Z,5.70
2023-04-27T23:46:31.229Z,5.72
2023-04-27T23:48:57.785Z,6.03
2023-04-27T23:51:24.276Z,6.10
2023-04-27T23:53:50.743Z,6.20
2023-04-27T23:56:18.056Z,5.45
2023-04-27T23:58:44.821Z,5.50
